Latest Weather Observations for Jervois

IDD60801

Issued at 2:01 pm CST Wednesday 1 April 2015 (issued every 30 minutes, with the page automatically refreshed every 10 minutes)

About weather observations | Map of weather stations | Latest weather observations for NT | Other Formats
Station Details ID: 015602 Name: JERVOIS Lat: -22.95 Lon: 136.14 Height: 328.0 m
Data from the previous 72 hours. | See also: Recent months at Jervois
Date/Time
CST
Temp
°C
App
Temp
°C
Dew
Point
Rel
Hum
%
Delta-T
°C
Wind Press
QNH
hPa
Press
MSL
hPa
Rain
since 9 am
mm
Dir
 
Spd
km/h
Gust
km/h
Spd
kts
Gust
kts
01/02:00pm 33.3 29.1 -0.8 11 16.7 ESE 11 22 6 12 1013.1 - 0.0
01/01:30pm 33.2 28.3 -0.7 11 16.6 SE 15 20 8 11 1013.6 - 0.0
01/01:00pm 33.1 27.8 -0.5 11 16.5 E 17 26 9 14 1014.1 - 0.0
01/12:30pm 34.0 31.0 1.0 12 16.7 SSE 6 17 3 9 1014.6 - 0.0
01/12:00pm 33.2 29.7 1.0 13 16.2 ESE 9 15 5 8 1015.3 1013.9 0.0
01/11:30am 32.2 26.6 1.0 13 15.6 E 20 24 11 13 1015.8 - 0.0
01/11:00am 31.5 26.5 1.3 14 15.1 SSE 17 24 9 13 1016.5 - 0.0
01/10:30am 31.1 25.6 0.3 14 15.1 S 19 28 10 15 1016.8 - 0.0
01/10:00am 30.1 24.1 -1.8 12 15.0 S 20 32 11 17 1017.1 - 0.0
01/09:30am 28.6 22.8 -0.3 15 13.8 SSE 20 28 11 15 1017.5 - 0.0
01/09:00am 27.0 22.2 0.4 17 12.7 SSE 15 24 8 13 1017.5 1016.2 0.0
01/08:30am 25.3 21.0 1.0 20 11.6 SSE 13 22 7 12 1017.5 - 0.0
01/08:00am 22.9 19.4 1.2 24 10.2 S 9 13 5 7 1017.4 - 0.0
01/07:30am 20.7 16.6 -0.2 24 9.4 SSW 11 17 6 9 1017.0 - 0.0
01/07:00am 18.5 15.2 0.0 28 8.2 SSW 7 13 4 7 1016.7 - 0.0
01/06:30am 18.0 14.3 -0.2 29 8.0 SSW 9 13 5 7 1016.6 - 0.0
01/06:00am 18.3 14.6 0.0 29 8.1 SSW 9 11 5 6 1016.5 1015.1 0.0
01/05:30am 18.2 14.5 0.2 29 8.0 S 9 11 5 6 1016.3 - 0.0
01/05:00am 18.1 14.5 0.4 30 7.9 S 9 11 5 6 1016.2 - 0.0
01/04:30am 18.4 15.2 0.6 30 8.0 S 7 11 4 6 1016.1 - 0.0
01/04:00am 18.6 15.4 0.6 30 8.1 S 7 11 4 6 1016.0 - 0.0
01/03:30am 19.0 15.7 0.2 28 8.4 SSW 7 11 4 6 1016.1 - 0.0
01/03:00am 19.5 16.4 1.2 29 8.4 S 7 9 4 5 1016.0 1014.6 0.0
01/02:30am 19.6 16.4 0.6 28 8.6 S 7 9 4 5 1016.1 - 0.0
01/02:00am 19.9 16.3 0.5 27 8.8 SSW 9 11 5 6 1016.5 - 0.0
01/01:30am 20.5 17.3 0.9 27 9.0 S 7 11 4 6 1016.8 - 0.0
01/01:00am 21.2 17.9 0.1 24 9.6 S 7 11 4 6 1017.3 - 0.0
01/12:30am 22.2 18.5 -0.2 22 10.2 S 9 15 5 8 1017.5 - 0.0
01/12:00am 22.8 19.2 0.6 23 10.3 S 9 13 5 7 1018.0 1016.0 0.0
 
Date/Time
CST
Temp
°C
App
Temp
°C
Dew
Point
Rel
Hum
%
Delta-T
°C
Wind Press
QNH
hPa
Press
MSL
hPa
Rain
since 9 am
mm
Dir
 
Spd
km/h
Gust
km/h
Spd
kts
Gust
kts
31/11:30pm 23.8 19.6 -0.7 19 11.2 S 11 17 6 9 1018.0 - 0.0
31/11:00pm 23.6 19.5 -0.4 20 11.0 S 11 15 6 8 1018.2 - 0.0
31/10:30pm 24.0 20.4 0.9 22 10.9 S 9 15 5 8 1018.4 - 0.0
31/10:00pm 24.6 21.0 0.6 20 11.3 S 9 13 5 7 1018.4 - 0.0
31/09:30pm 24.7 21.1 0.4 20 11.4 S 9 13 5 7 1018.3 - 0.0
31/09:00pm 25.2 21.9 0.0 19 11.8 S 7 11 4 6 1018.0 1015.9 0.0
31/08:30pm 26.1 22.3 -0.9 17 12.5 S 9 13 5 7 1017.5 - 0.0
31/08:00pm 27.0 23.3 0.0 17 12.8 S 9 13 5 7 1017.2 - 0.0
31/07:30pm 27.8 24.1 -0.2 16 13.3 S 9 15 5 8 1016.8 - 0.0
31/07:00pm 28.4 25.2 0.8 16 13.4 S 7 11 4 6 1016.5 - 0.0
31/06:30pm 30.1 25.4 -1.8 12 15.0 S 13 19 7 10 1016.2 - 0.0
31/06:00pm 31.3 26.0 -3.9 10 16.1 S 15 22 8 12 1016.0 1014.0 0.0
31/05:30pm 32.0 26.2 -4.4 9 16.6 SSE 17 26 9 14 1015.9 - 0.0
31/05:00pm 32.5 26.4 -3.8 9 16.8 SSE 19 28 10 15 1015.8 - 0.0
31/04:30pm 33.2 27.4 -4.3 9 17.3 S 17 30 9 16 1015.7 - 0.0
31/04:00pm 33.3 28.0 -3.4 9 17.2 SSE 15 30 8 16 1015.6 - 0.0
31/03:30pm 33.5 27.3 -5.1 8 17.6 SE 19 26 10 14 1015.7 - 0.0
31/03:00pm 32.5 27.7 -2.8 10 16.6 SE 13 22 7 12 1015.8 1013.9 0.0
31/02:30pm 33.0 27.9 -1.8 10 16.7 SE 15 30 8 16 1016.2 - 0.0
31/02:00pm 31.9 26.5 -1.6 11 16.0 SE 17 26 9 14 1016.7 - 0.0
31/01:30pm 31.9 25.4 -2.1 11 16.1 SSE 22 30 12 16 1017.3 - 0.0
31/01:00pm 32.1 26.5 -0.1 12 15.8 SSE 19 30 10 16 1017.8 - 0.0
31/12:30pm 31.4 24.9 0.2 13 15.3 SE 24 32 13 17 1018.3 - 0.0
31/12:00pm 30.5 24.9 0.1 14 14.8 SE 19 28 10 15 1018.9 1016.9 0.0
31/11:30am 30.2 23.9 1.4 15 14.3 SSE 24 32 13 17 1019.4 - 0.0
31/11:00am 30.0 24.6 2.5 17 13.9 SE 20 32 11 17 1020.0 - 0.0
31/10:30am 29.0 23.8 3.6 19 13.0 ESE 20 30 11 16 1020.4 - 0.0
31/09:00am 25.4 19.5 3.9 25 10.8 SE 24 - 13 - - 1019.4 0.0
31/08:00am 27.2 21.7 4.0 22 11.8 SE 22 32 12 17 1020.9 - 0.0
31/07:30am 26.1 21.2 3.9 24 11.2 SE 19 30 10 16 1021.3 - 0.0
31/07:00am 24.9 19.9 4.6 27 10.3 SE 20 32 11 17 1021.6 - 0.0
31/06:30am 23.9 20.0 5.3 30 9.5 SE 15 26 8 14 1021.4 - 0.0
31/06:00am 20.1 17.3 5.2 37 7.4 SSE 9 22 5 12 1021.3 1018.3 0.0
31/05:30am 20.9 17.7 5.3 36 7.8 SSE 11 20 6 11 1021.0 - 0.0
31/05:00am 19.8 17.0 5.3 38 7.2 SSE 9 15 5 8 1020.8 - 0.0
31/04:30am 20.0 16.8 5.3 38 7.3 S 11 15 6 8 1020.3 - 0.0
31/04:00am 20.3 17.1 5.2 37 7.5 SSE 11 17 6 9 1020.1 - 0.0
31/03:30am 20.8 17.6 5.2 36 7.8 S 11 15 6 8 1019.8 - 0.0
31/03:00am 23.2 18.7 4.1 29 9.5 SSE 17 17 9 9 1019.7 1017.1 0.0
31/02:30am 21.9 18.3 4.9 33 8.5 SSE 13 17 7 9 1019.5 - 0.0
31/02:00am 22.3 18.3 4.7 31 8.8 SSE 15 20 8 11 1019.3 - 0.0
31/01:30am 22.7 18.7 4.8 31 9.0 SSE 15 24 8 13 1019.2 - 0.0
31/01:00am 23.2 18.7 4.1 29 9.5 SSE 17 24 9 13 1019.1 - 0.0
31/12:30am 23.5 19.3 4.0 28 9.7 SSE 15 22 8 12 1019.4 - 0.0
31/12:00am 24.8 20.8 3.1 24 10.7 SSE 13 20 7 11 1019.6 1018.2 0.0
 
Date/Time
CST
Temp
°C
App
Temp
°C
Dew
Point
Rel
Hum
%
Delta-T
°C
Wind Press
QNH
hPa
Press
MSL
hPa
Rain
since 9 am
mm
Dir
 
Spd
km/h
Gust
km/h
Spd
kts
Gust
kts
30/11:30pm 23.9 19.7 3.8 27 10.0 SSE 15 20 8 11 1019.7 - 0.0
30/11:00pm 24.4 19.7 3.4 25 10.4 SSE 17 22 9 12 1019.9 - 0.0
30/10:30pm 24.5 20.2 3.2 25 10.5 SSE 15 19 8 10 1020.1 - 0.0
30/10:00pm 25.0 20.7 3.2 24 10.8 SSE 15 20 8 11 1020.2 - 0.0
30/09:30pm 25.6 21.2 2.6 22 11.3 SSE 15 20 8 11 1020.3 - 0.0
30/09:00pm 27.3 23.4 3.2 21 12.1 SSE 13 19 7 10 1020.4 1018.3 0.0
30/08:30pm 26.4 22.5 3.2 22 11.6 SSE 13 17 7 9 1020.4 - 0.0
30/08:00pm 26.8 22.9 3.3 22 11.8 SSE 13 20 7 11 1020.4 - 0.0
30/07:30pm 27.2 23.3 3.4 21 12.0 SSE 13 19 7 10 1020.3 - 0.0
30/07:00pm 27.6 24.0 2.8 20 12.4 SSE 11 15 6 8 1020.1 - 0.0
30/06:30pm 27.9 24.5 2.0 19 12.8 SSE 9 13 5 7 1019.8 - 0.0
30/06:00pm 32.0 26.2 -1.8 11 16.1 SE 19 13 10 7 1019.4 1016.4 0.0
30/05:30pm 30.0 26.0 0.5 15 14.4 SE 11 17 6 9 1019.0 - 0.0
30/05:00pm 30.7 26.2 -0.3 13 15.0 SE 13 19 7 10 1018.8 - 0.0
30/04:30pm 31.7 25.8 -2.2 11 16.0 SE 19 28 10 15 1018.5 - 0.0
30/04:00pm 32.4 26.3 -2.6 10 16.5 SE 20 32 11 17 1018.3 - 0.0
30/03:30pm 32.9 26.9 -1.7 11 16.6 SE 20 33 11 18 1018.2 - 0.0
30/03:00pm 33.2 27.1 -2.3 10 16.9 SE 20 32 11 17 1018.1 1016.3 0.0
30/02:30pm 33.6 27.4 -3.1 9 17.3 SE 20 30 11 16 1018.1 - 0.0
30/02:00pm 33.2 26.7 -2.8 10 17.0 SSE 22 32 12 17 1017.8 - 0.0
30/01:30pm 33.7 27.1 -3.3 9 17.4 SE 22 35 12 19 1018.1 - 0.0
30/01:00pm 33.8 27.3 -2.5 9 17.3 SE 22 35 12 19 1018.4 - 0.0
30/12:30pm 32.9 26.4 -2.2 10 16.7 SE 22 35 12 19 1018.6 - 0.0
30/12:00pm 31.0 24.1 -2.3 11 15.6 SE 24 35 13 19 1019.0 1018.7 0.0
30/11:30am 32.3 26.3 -1.5 11 16.2 SE 20 37 11 20 1019.4 - 0.0
30/11:00am 31.4 24.7 -1.2 12 15.6 SE 24 39 13 21 1019.8 - 0.0
30/10:30am 31.0 24.1 -2.3 11 15.6 ESE 24 39 13 21 1020.3 - 0.0
30/10:00am 30.1 23.7 -1.5 13 14.9 SE 22 35 12 19 1020.9 - 0.0
30/09:30am 29.8 23.6 0.0 14 14.4 SE 22 33 12 18 1021.6 - 0.0
30/09:00am 24.9 18.2 -0.8 18 11.8 SSE 24 37 13 20 1022.1 1020.4 0.0
30/08:30am 28.1 21.4 -1.3 14 13.7 SE 24 33 13 18 1022.3 - 0.0
30/08:00am 26.7 19.9 -2.1 15 13.1 SE 24 35 13 19 1022.4 - 0.0
30/07:30am 25.8 19.1 -1.3 16 12.5 SSE 24 33 13 18 1022.4 - 0.0
30/07:00am 24.3 18.1 -0.5 19 11.4 SSE 22 32 12 17 1022.3 - 0.0
30/06:30am 23.0 17.4 -0.2 21 10.6 S 19 28 10 15 1022.1 - 0.0
30/06:00am 17.7 13.9 -0.8 28 8.0 S 9 26 5 14 1021.6 1018.7 0.0
30/05:30am 19.0 15.4 0.5 29 8.3 S 9 15 5 8 1021.4 - 0.0
30/05:00am 18.1 14.5 0.6 30 7.8 S 9 15 5 8 1021.0 - 0.0
30/04:30am 18.1 14.0 -0.1 29 8.0 S 11 15 6 8 1020.5 - 0.0
30/04:00am 18.0 14.3 -0.2 29 8.0 S 9 11 5 6 1020.5 - 0.0
30/03:30am 18.4 14.9 -1.4 26 8.5 S 7 9 4 5 1020.3 - 0.0
30/03:00am 19.9 15.6 -4.5 19 10.0 S 9 15 5 8 1019.9 1017.5 0.0
30/02:30am 19.6 15.3 -1.7 23 9.2 S 11 17 6 9 1019.7 - 0.0
30/02:00am 19.7 15.2 -3.6 20 9.7 S 11 15 6 8 1019.5 - 0.0
30/01:30am 20.1 15.4 -5.0 18 10.2 S 11 17 6 9 1019.4 - 0.0
30/01:00am 20.7 16.0 -5.0 17 10.5 SSE 11 17 6 9 1019.4 - 0.0
30/12:30am 20.7 16.0 -5.0 17 10.5 SSE 11 15 6 8 1019.4 - 0.0
30/12:00am 23.0 18.1 -6.7 13 12.0 SSE 11 15 6 8 1019.4 1018.3 0.0
 
Date/Time
CST
Temp
°C
App
Temp
°C
Dew
Point
Rel
Hum
%
Delta-T
°C
Wind Press
QNH
hPa
Press
MSL
hPa
Rain
since 9 am
mm
Dir
 
Spd
km/h
Gust
km/h
Spd
kts
Gust
kts
29/11:30pm 21.1 17.2 -4.5 17 10.6 SSE 7 11 4 6 1019.9 - 0.0
29/11:00pm 21.8 17.3 -6.8 14 11.4 S 9 15 5 8 1020.1 - 0.0
29/10:30pm 22.3 17.9 -5.4 15 11.4 SSE 9 13 5 7 1020.1 - 0.0
29/10:00pm 23.5 18.1 -8.1 11 12.5 SSE 13 19 7 10 1020.3 - 0.0
29/09:30pm 24.2 18.3 -10.5 9 13.2 SSE 15 20 8 11 1020.5 - 0.0
29/09:00pm 25.6 20.4 -10.2 8 13.9 SSE 11 19 6 10 1020.9 1018.9 0.0
29/08:30pm 23.9 18.7 -10.2 9 13.0 S 11 13 6 7 1021.0 - 0.0
29/08:00pm 24.6 19.9 -9.7 9 13.3 SSE 9 13 5 7 1020.9 - 0.0
29/07:30pm 25.5 20.3 -10.6 8 13.9 SSE 11 15 6 8 1020.8 - 0.0
29/07:00pm 25.7 21.1 -8.4 10 13.7 SSE 9 15 5 8 1020.7 - 0.0
29/06:30pm 26.7 21.5 -10.3 8 14.5 SSE 11 15 6 8 1020.5 - 0.0
29/06:00pm 30.9 23.7 -15.9 4 17.4 SSE 20 15 11 8 1020.3 1016.9 0.0
29/05:30pm 28.5 23.2 -12.1 6 15.7 SSE 11 17 6 9 1020.0 - 0.0
29/05:00pm 29.6 23.4 -13.9 5 16.5 SSE 15 20 8 11 1019.5 - 0.0
29/04:30pm 30.5 23.5 -15.0 4 17.1 SSE 19 28 10 15 1019.2 - 0.0
29/04:00pm 31.4 24.1 -17.4 3 17.8 SSE 20 30 11 16 1018.7 - 0.0
29/03:30pm 31.8 24.6 -14.7 4 17.8 SE 20 30 11 16 1018.4 - 0.0
29/03:00pm 32.4 24.6 -13.2 4 18.0 SE 24 30 13 16 1018.2 1016.2 0.0
29/02:30pm 32.5 25.2 -11.6 5 17.9 SE 22 35 12 19 1017.8 - 0.0

Other Formats:

Comma delimited format used in spreadsheet applications
http://www.bom.gov.au/fwo/IDD60801/IDD60801.94327.axf

JavaScript Object Notation format (JSON) in row-major order
http://www.bom.gov.au/fwo/IDD60801/IDD60801.94327.json